sensor_id;sensor_type;location;lat;lon;timestamp;P1;durP1;ratioP1;P2;durP2;ratioP2
71869;SDS011;59739;47.696;11.746;2022-12-10T00:01:52;23.95;;;13.63;;
71869;SDS011;59739;47.696;11.746;2022-12-10T00:04:18;22.15;;;13.73;;
71869;SDS011;59739;47.696;11.746;2022-12-10T00:06:46;25.33;;;13.55;;
71869;SDS011;59739;47.696;11.746;2022-12-10T00:09:15;23.27;;;14.20;;
71869;SDS011;59739;47.696;11.746;2022-12-10T00:11:43;25.20;;;13.48;;
71869;SDS011;59739;47.696;11.746;2022-12-10T00:14:10;23.83;;;13.35;;
71869;SDS011;59739;47.696;11.746;2022-12-10T00:16:38;27.08;;;15.00;;
71869;SDS011;59739;47.696;11.746;2022-12-10T00:19:04;25.17;;;13.48;;
71869;SDS011;59739;47.696;11.746;2022-12-10T00:21:31;23.98;;;13.25;;
71869;SDS011;59739;47.696;11.746;2022-12-10T00:24:00;23.95;;;13.77;;
71869;SDS011;59739;47.696;11.746;2022-12-10T00:26:28;25.10;;;13.85;;
71869;SDS011;59739;47.696;11.746;2022-12-10T00:28:57;22.13;;;14.00;;
71869;SDS011;59739;47.696;11.746;2022-12-10T00:31:27;25.00;;;13.70;;
71869;SDS011;59739;47.696;11.746;2022-12-10T00:33:56;25.95;;;14.27;;
71869;SDS011;59739;47.696;11.746;2022-12-10T00:36:29;19.98;;;12.70;;
71869;SDS011;59739;47.696;11.746;2022-12-10T00:39:00;22.85;;;13.50;;
71869;SDS011;59739;47.696;11.746;2022-12-10T00:41:28;24.52;;;13.82;;
71869;SDS011;59739;47.696;11.746;2022-12-10T00:43:55;29.02;;;15.23;;
71869;SDS011;59739;47.696;11.746;2022-12-10T00:46:21;23.70;;;13.90;;
71869;SDS011;59739;47.696;11.746;2022-12-10T00:48:47;23.42;;;14.48;;
71869;SDS011;59739;47.696;11.746;2022-12-10T00:51:14;24.42;;;13.90;;
71869;SDS011;59739;47.696;11.746;2022-12-10T00:53:44;23.33;;;14.10;;
71869;SDS011;59739;47.696;11.746;2022-12-10T00:56:11;21.00;;;13.05;;
71869;SDS011;59739;47.696;11.746;2022-12-10T00:58:40;24.75;;;14.13;;
71869;SDS011;59739;47.696;11.746;2022-12-10T01:01:07;20.25;;;12.68;;
71869;SDS011;59739;47.696;11.746;2022-12-10T01:03:51;22.42;;;12.73;;
71869;SDS011;59739;47.696;11.746;2022-12-10T01:08:51;21.00;;;12.88;;
71869;SDS011;59739;47.696;11.746;2022-12-10T01:11:20;22.80;;;12.23;;
71869;SDS011;59739;47.696;11.746;2022-12-10T01:13:51;19.70;;;12.10;;
71869;SDS011;59739;47.696;11.746;2022-12-10T01:16:19;22.67;;;13.95;;
71869;SDS011;59739;47.696;11.746;2022-12-10T01:18:46;22.30;;;13.10;;
71869;SDS011;59739;47.696;11.746;2022-12-10T01:21:18;20.83;;;13.52;;
71869;SDS011;59739;47.696;11.746;2022-12-10T01:23:45;23.30;;;12.13;;
71869;SDS011;59739;47.696;11.746;2022-12-10T01:26:18;23.75;;;14.40;;
71869;SDS011;59739;47.696;11.746;2022-12-10T01:28:50;20.50;;;13.02;;
71869;SDS011;59739;47.696;11.746;2022-12-10T01:31:33;20.23;;;12.82;;
71869;SDS011;59739;47.696;11.746;2022-12-10T01:34:05;17.92;;;11.35;;
71869;SDS011;59739;47.696;11.746;2022-12-10T01:36:35;21.85;;;11.85;;
71869;SDS011;59739;47.696;11.746;2022-12-10T01:39:11;21.95;;;13.23;;
71869;SDS011;59739;47.696;11.746;2022-12-10T01:41:40;19.77;;;13.10;;
71869;SDS011;59739;47.696;11.746;2022-12-10T01:46:37;22.17;;;13.60;;
71869;SDS011;59739;47.696;11.746;2022-12-10T01:49:34;19.38;;;12.25;;
71869;SDS011;59739;47.696;11.746;2022-12-10T01:52:02;21.38;;;12.13;;
71869;SDS011;59739;47.696;11.746;2022-12-10T01:54:33;23.20;;;13.07;;
71869;SDS011;59739;47.696;11.746;2022-12-10T01:57:09;22.92;;;13.70;;
71869;SDS011;59739;47.696;11.746;2022-12-10T01:59:39;18.23;;;11.45;;
71869;SDS011;59739;47.696;11.746;2022-12-10T02:07:22;18.50;;;11.63;;
71869;SDS011;59739;47.696;11.746;2022-12-10T02:13:06;21.83;;;12.32;;
71869;SDS011;59739;47.696;11.746;2022-12-10T02:15:54;21.90;;;12.77;;
71869;SDS011;59739;47.696;11.746;2022-12-10T02:18:37;19.98;;;11.77;;
71869;SDS011;59739;47.696;11.746;2022-12-10T02:21:10;18.05;;;11.63;;
71869;SDS011;59739;47.696;11.746;2022-12-10T02:23:47;19.00;;;12.23;;
71869;SDS011;59739;47.696;11.746;2022-12-10T02:29:13;16.88;;;11.98;;
71869;SDS011;59739;47.696;11.746;2022-12-10T02:32:00;18.65;;;11.80;;
71869;SDS011;59739;47.696;11.746;2022-12-10T02:34:49;17.85;;;11.63;;
71869;SDS011;59739;47.696;11.746;2022-12-10T02:37:24;21.10;;;14.13;;
71869;SDS011;59739;47.696;11.746;2022-12-10T02:39:58;17.55;;;11.00;;
71869;SDS011;59739;47.696;11.746;2022-12-10T02:42:34;17.08;;;11.38;;
71869;SDS011;59739;47.696;11.746;2022-12-10T02:45:06;16.10;;;10.48;;
71869;SDS011;59739;47.696;11.746;2022-12-10T02:47:34;19.67;;;11.10;;
71869;SDS011;59739;47.696;11.746;2022-12-10T02:50:03;14.30;;;10.68;;
71869;SDS011;59739;47.696;11.746;2022-12-10T02:52:30;15.48;;;10.32;;
71869;SDS011;59739;47.696;11.746;2022-12-10T02:54:56;15.70;;;10.63;;
71869;SDS011;59739;47.696;11.746;2022-12-10T03:00:28;14.50;;;9.95;;
71869;SDS011;59739;47.696;11.746;2022-12-10T03:06:39;16.90;;;10.63;;
71869;SDS011;59739;47.696;11.746;2022-12-10T03:09:00;16.25;;;10.95;;
71869;SDS011;59739;47.696;11.746;2022-12-10T03:11:29;14.88;;;10.70;;
71869;SDS011;59739;47.696;11.746;2022-12-10T03:16:50;14.75;;;10.13;;
71869;SDS011;59739;47.696;11.746;2022-12-10T03:19:21;16.20;;;10.10;;
71869;SDS011;59739;47.696;11.746;2022-12-10T03:21:53;15.95;;;10.57;;
71869;SDS011;59739;47.696;11.746;2022-12-10T03:24:23;15.75;;;10.45;;
71869;SDS011;59739;47.696;11.746;2022-12-10T03:26:52;17.15;;;10.95;;
71869;SDS011;59739;47.696;11.746;2022-12-10T03:29:26;16.35;;;10.77;;
71869;SDS011;59739;47.696;11.746;2022-12-10T03:32:06;15.60;;;9.82;;
71869;SDS011;59739;47.696;11.746;2022-12-10T03:34:33;19.00;;;10.85;;
71869;SDS011;59739;47.696;11.746;2022-12-10T03:37:00;15.27;;;9.93;;
71869;SDS011;59739;47.696;11.746;2022-12-10T03:39:27;15.98;;;10.32;;
71869;SDS011;59739;47.696;11.746;2022-12-10T03:41:53;15.55;;;10.30;;
71869;SDS011;59739;47.696;11.746;2022-12-10T03:44:29;16.80;;;10.38;;
71869;SDS011;59739;47.696;11.746;2022-12-10T03:47:00;15.05;;;10.40;;
71869;SDS011;59739;47.696;11.746;2022-12-10T03:49:27;15.77;;;10.65;;
71869;SDS011;59739;47.696;11.746;2022-12-10T03:51:53;13.98;;;10.13;;
71869;SDS011;59739;47.696;11.746;2022-12-10T03:54:19;15.65;;;11.13;;
71869;SDS011;59739;47.696;11.746;2022-12-10T03:56:46;16.17;;;10.80;;
71869;SDS011;59739;47.696;11.746;2022-12-10T03:59:12;16.33;;;10.00;;
71869;SDS011;59739;47.696;11.746;2022-12-10T04:01:38;15.60;;;10.52;;
71869;SDS011;59739;47.696;11.746;2022-12-10T04:04:05;15.57;;;10.18;;
71869;SDS011;59739;47.696;11.746;2022-12-10T04:06:32;13.73;;;9.23;;
71869;SDS011;59739;47.696;11.746;2022-12-10T04:08:58;15.45;;;10.32;;
71869;SDS011;59739;47.696;11.746;2022-12-10T04:11:24;15.23;;;10.68;;
71869;SDS011;59739;47.696;11.746;2022-12-10T04:13:50;16.05;;;10.93;;
71869;SDS011;59739;47.696;11.746;2022-12-10T04:16:35;15.30;;;10.07;;
71869;SDS011;59739;47.696;11.746;2022-12-10T04:19:06;15.55;;;10.25;;
71869;SDS011;59739;47.696;11.746;2022-12-10T04:21:36;14.68;;;10.55;;
71869;SDS011;59739;47.696;11.746;2022-12-10T04:24:24;15.40;;;9.82;;
71869;SDS011;59739;47.696;11.746;2022-12-10T04:27:31;17.60;;;11.30;;
71869;SDS011;59739;47.696;11.746;2022-12-10T04:30:02;16.00;;;10.65;;
71869;SDS011;59739;47.696;11.746;2022-12-10T04:32:31;17.23;;;10.48;;
71869;SDS011;59739;47.696;11.746;2022-12-10T04:34:57;15.55;;;10.13;;
71869;SDS011;59739;47.696;11.746;2022-12-10T04:37:24;15.10;;;10.13;;
71869;SDS011;59739;47.696;11.746;2022-12-10T04:39:51;15.73;;;10.50;;
71869;SDS011;59739;47.696;11.746;2022-12-10T04:42:18;15.57;;;10.30;;
71869;SDS011;59739;47.696;11.746;2022-12-10T04:44:46;15.45;;;9.68;;
71869;SDS011;59739;47.696;11.746;2022-12-10T04:47:13;14.85;;;10.45;;
71869;SDS011;59739;47.696;11.746;2022-12-10T04:49:40;15.70;;;9.93;;
71869;SDS011;59739;47.696;11.746;2022-12-10T04:52:06;18.45;;;10.50;;
71869;SDS011;59739;47.696;11.746;2022-12-10T04:54:33;17.23;;;10.10;;
71869;SDS011;59739;47.696;11.746;2022-12-10T04:56:59;16.15;;;11.02;;
71869;SDS011;59739;47.696;11.746;2022-12-10T04:59:25;15.05;;;9.10;;
71869;SDS011;59739;47.696;11.746;2022-12-10T05:01:52;12.93;;;9.40;;
71869;SDS011;59739;47.696;11.746;2022-12-10T05:04:18;13.65;;;9.75;;
71869;SDS011;59739;47.696;11.746;2022-12-10T05:06:44;13.48;;;9.32;;
71869;SDS011;59739;47.696;11.746;2022-12-10T05:09:12;13.38;;;9.25;;
71869;SDS011;59739;47.696;11.746;2022-12-10T05:11:39;17.05;;;11.07;;
71869;SDS011;59739;47.696;11.746;2022-12-10T05:14:06;16.77;;;10.88;;
71869;SDS011;59739;47.696;11.746;2022-12-10T05:16:33;16.35;;;10.27;;
71869;SDS011;59739;47.696;11.746;2022-12-10T05:19:00;16.75;;;10.73;;
71869;SDS011;59739;47.696;11.746;2022-12-10T05:21:27;15.98;;;10.88;;
71869;SDS011;59739;47.696;11.746;2022-12-10T05:24:14;17.13;;;10.93;;
71869;SDS011;59739;47.696;11.746;2022-12-10T05:26:43;17.08;;;10.60;;
71869;SDS011;59739;47.696;11.746;2022-12-10T05:29:09;17.58;;;11.60;;
71869;SDS011;59739;47.696;11.746;2022-12-10T05:31:36;18.65;;;11.35;;
71869;SDS011;59739;47.696;11.746;2022-12-10T05:34:02;19.40;;;12.13;;
71869;SDS011;59739;47.696;11.746;2022-12-10T05:36:29;18.17;;;11.73;;
71869;SDS011;59739;47.696;11.746;2022-12-10T05:38:56;17.85;;;11.07;;
71869;SDS011;59739;47.696;11.746;2022-12-10T05:41:26;18.42;;;10.98;;
71869;SDS011;59739;47.696;11.746;2022-12-10T05:43:56;21.40;;;13.30;;
71869;SDS011;59739;47.696;11.746;2022-12-10T05:46:24;19.02;;;11.93;;
71869;SDS011;59739;47.696;11.746;2022-12-10T05:48:56;22.60;;;12.88;;
71869;SDS011;59739;47.696;11.746;2022-12-10T05:51:23;19.90;;;13.10;;
71869;SDS011;59739;47.696;11.746;2022-12-10T05:53:52;20.73;;;12.27;;
71869;SDS011;59739;47.696;11.746;2022-12-10T05:56:21;19.85;;;11.73;;
71869;SDS011;59739;47.696;11.746;2022-12-10T05:58:49;18.98;;;12.43;;
71869;SDS011;59739;47.696;11.746;2022-12-10T06:01:20;20.77;;;12.77;;
71869;SDS011;59739;47.696;11.746;2022-12-10T06:03:52;20.73;;;12.85;;
71869;SDS011;59739;47.696;11.746;2022-12-10T06:06:22;18.95;;;12.20;;
71869;SDS011;59739;47.696;11.746;2022-12-10T06:08:51;22.20;;;13.73;;
71869;SDS011;59739;47.696;11.746;2022-12-10T06:11:17;22.00;;;13.68;;
71869;SDS011;59739;47.696;11.746;2022-12-10T06:13:44;19.58;;;11.65;;
71869;SDS011;59739;47.696;11.746;2022-12-10T06:16:12;21.50;;;12.48;;
71869;SDS011;59739;47.696;11.746;2022-12-10T06:18:39;20.50;;;12.88;;
71869;SDS011;59739;47.696;11.746;2022-12-10T06:21:06;21.83;;;12.93;;
71869;SDS011;59739;47.696;11.746;2022-12-10T06:23:38;22.88;;;14.48;;
71869;SDS011;59739;47.696;11.746;2022-12-10T06:26:06;19.27;;;12.60;;
71869;SDS011;59739;47.696;11.746;2022-12-10T06:31:03;17.17;;;11.20;;
71869;SDS011;59739;47.696;11.746;2022-12-10T06:33:30;22.25;;;12.98;;
71869;SDS011;59739;47.696;11.746;2022-12-10T06:35:56;19.38;;;11.75;;
71869;SDS011;59739;47.696;11.746;2022-12-10T06:38:24;23.17;;;13.98;;
71869;SDS011;59739;47.696;11.746;2022-12-10T06:40:50;18.88;;;11.30;;
71869;SDS011;59739;47.696;11.746;2022-12-10T06:43:17;19.45;;;12.57;;
71869;SDS011;59739;47.696;11.746;2022-12-10T06:45:44;21.98;;;12.93;;
71869;SDS011;59739;47.696;11.746;2022-12-10T06:48:10;19.98;;;12.48;;
71869;SDS011;59739;47.696;11.746;2022-12-10T06:50:36;20.13;;;12.88;;
71869;SDS011;59739;47.696;11.746;2022-12-10T06:53:02;21.35;;;12.40;;
71869;SDS011;59739;47.696;11.746;2022-12-10T06:55:28;20.63;;;12.77;;
71869;SDS011;59739;47.696;11.746;2022-12-10T06:57:54;20.90;;;12.93;;
71869;SDS011;59739;47.696;11.746;2022-12-10T07:00:20;19.02;;;12.43;;
71869;SDS011;59739;47.696;11.746;2022-12-10T07:02:47;18.10;;;11.88;;
71869;SDS011;59739;47.696;11.746;2022-12-10T07:05:13;19.55;;;12.52;;
71869;SDS011;59739;47.696;11.746;2022-12-10T07:07:39;22.00;;;12.25;;
71869;SDS011;59739;47.696;11.746;2022-12-10T07:10:05;19.83;;;12.43;;
71869;SDS011;59739;47.696;11.746;2022-12-10T07:12:32;19.10;;;12.88;;
71869;SDS011;59739;47.696;11.746;2022-12-10T07:14:58;19.50;;;12.48;;
71869;SDS011;59739;47.696;11.746;2022-12-10T07:17:24;19.10;;;12.45;;
71869;SDS011;59739;47.696;11.746;2022-12-10T07:19:50;21.80;;;12.75;;
71869;SDS011;59739;47.696;11.746;2022-12-10T07:22:16;22.10;;;13.10;;
71869;SDS011;59739;47.696;11.746;2022-12-10T07:24:42;21.30;;;13.60;;
71869;SDS011;59739;47.696;11.746;2022-12-10T07:27:08;24.10;;;14.15;;
71869;SDS011;59739;47.696;11.746;2022-12-10T07:29:34;21.55;;;13.00;;
71869;SDS011;59739;47.696;11.746;2022-12-10T07:32:01;24.65;;;13.55;;
71869;SDS011;59739;47.696;11.746;2022-12-10T07:34:27;22.75;;;13.10;;
71869;SDS011;59739;47.696;11.746;2022-12-10T07:36:53;24.55;;;14.23;;
71869;SDS011;59739;47.696;11.746;2022-12-10T07:39:20;22.48;;;13.07;;
71869;SDS011;59739;47.696;11.746;2022-12-10T07:41:49;24.70;;;14.18;;
71869;SDS011;59739;47.696;11.746;2022-12-10T07:44:18;25.10;;;15.03;;
71869;SDS011;59739;47.696;11.746;2022-12-10T07:46:50;21.75;;;13.90;;
71869;SDS011;59739;47.696;11.746;2022-12-10T07:49:18;25.45;;;14.18;;
71869;SDS011;59739;47.696;11.746;2022-12-10T07:51:45;22.90;;;13.52;;
71869;SDS011;59739;47.696;11.746;2022-12-10T07:54:12;22.38;;;13.63;;
71869;SDS011;59739;47.696;11.746;2022-12-10T07:56:39;23.25;;;14.20;;
71869;SDS011;59739;47.696;11.746;2022-12-10T07:59:05;25.30;;;14.75;;
71869;SDS011;59739;47.696;11.746;2022-12-10T08:01:31;22.83;;;14.25;;
71869;SDS011;59739;47.696;11.746;2022-12-10T08:03:57;23.30;;;13.60;;
71869;SDS011;59739;47.696;11.746;2022-12-10T08:06:23;25.00;;;14.90;;
71869;SDS011;59739;47.696;11.746;2022-12-10T08:08:52;22.38;;;14.43;;
71869;SDS011;59739;47.696;11.746;2022-12-10T08:11:20;23.27;;;13.32;;
71869;SDS011;59739;47.696;11.746;2022-12-10T08:13:47;20.88;;;13.55;;
71869;SDS011;59739;47.696;11.746;2022-12-10T08:16:18;23.42;;;14.88;;
71869;SDS011;59739;47.696;11.746;2022-12-10T08:18:50;24.90;;;13.32;;
71869;SDS011;59739;47.696;11.746;2022-12-10T08:21:18;23.33;;;14.23;;
71869;SDS011;59739;47.696;11.746;2022-12-10T08:23:48;23.77;;;14.73;;
71869;SDS011;59739;47.696;11.746;2022-12-10T08:26:18;23.35;;;14.45;;
71869;SDS011;59739;47.696;11.746;2022-12-10T08:31:14;23.27;;;13.13;;
71869;SDS011;59739;47.696;11.746;2022-12-10T08:33:42;28.55;;;14.35;;
71869;SDS011;59739;47.696;11.746;2022-12-10T08:36:08;24.67;;;14.43;;
71869;SDS011;59739;47.696;11.746;2022-12-10T08:38:38;24.23;;;15.13;;
71869;SDS011;59739;47.696;11.746;2022-12-10T08:41:09;23.60;;;13.75;;
71869;SDS011;59739;47.696;11.746;2022-12-10T08:43:46;24.45;;;14.55;;
71869;SDS011;59739;47.696;11.746;2022-12-10T08:46:14;24.52;;;14.95;;
71869;SDS011;59739;47.696;11.746;2022-12-10T08:48:41;27.45;;;15.30;;
71869;SDS011;59739;47.696;11.746;2022-12-10T08:51:08;24.83;;;15.23;;
71869;SDS011;59739;47.696;11.746;2022-12-10T08:53:36;25.77;;;14.57;;
71869;SDS011;59739;47.696;11.746;2022-12-10T08:56:02;22.73;;;14.18;;
71869;SDS011;59739;47.696;11.746;2022-12-10T08:58:29;27.75;;;15.70;;
71869;SDS011;59739;47.696;11.746;2022-12-10T09:00:55;25.17;;;15.20;;
71869;SDS011;59739;47.696;11.746;2022-12-10T09:03:22;26.30;;;15.00;;
71869;SDS011;59739;47.696;11.746;2022-12-10T09:05:48;27.80;;;15.63;;
71869;SDS011;59739;47.696;11.746;2022-12-10T09:08:15;26.15;;;15.05;;
71869;SDS011;59739;47.696;11.746;2022-12-10T09:10:41;25.33;;;15.43;;
71869;SDS011;59739;47.696;11.746;2022-12-10T09:13:08;29.25;;;14.32;;
71869;SDS011;59739;47.696;11.746;2022-12-10T09:15:35;24.98;;;14.75;;
71869;SDS011;59739;47.696;11.746;2022-12-10T09:18:02;25.70;;;14.48;;
71869;SDS011;59739;47.696;11.746;2022-12-10T09:20:28;25.65;;;14.48;;
71869;SDS011;59739;47.696;11.746;2022-12-10T09:22:54;26.15;;;15.02;;
71869;SDS011;59739;47.696;11.746;2022-12-10T09:25:20;24.33;;;12.80;;
71869;SDS011;59739;47.696;11.746;2022-12-10T09:27:46;25.63;;;14.00;;
71869;SDS011;59739;47.696;11.746;2022-12-10T09:30:13;25.00;;;14.70;;
71869;SDS011;59739;47.696;11.746;2022-12-10T09:32:39;24.35;;;15.35;;
71869;SDS011;59739;47.696;11.746;2022-12-10T09:35:06;26.42;;;15.23;;
71869;SDS011;59739;47.696;11.746;2022-12-10T09:37:32;28.30;;;15.00;;
71869;SDS011;59739;47.696;11.746;2022-12-10T09:39:59;23.58;;;13.10;;
71869;SDS011;59739;47.696;11.746;2022-12-10T09:42:31;24.60;;;14.68;;
71869;SDS011;59739;47.696;11.746;2022-12-10T09:45:16;23.85;;;13.02;;
71869;SDS011;59739;47.696;11.746;2022-12-10T09:47:54;28.17;;;15.00;;
71869;SDS011;59739;47.696;11.746;2022-12-10T09:51:12;24.95;;;13.93;;
71869;SDS011;59739;47.696;11.746;2022-12-10T09:53:47;22.25;;;11.75;;
71869;SDS011;59739;47.696;11.746;2022-12-10T09:56:19;22.83;;;13.07;;
71869;SDS011;59739;47.696;11.746;2022-12-10T09:58:49;23.98;;;13.73;;
71869;SDS011;59739;47.696;11.746;2022-12-10T10:01:16;21.20;;;12.18;;
71869;SDS011;59739;47.696;11.746;2022-12-10T10:03:45;21.63;;;11.10;;
71869;SDS011;59739;47.696;11.746;2022-12-10T10:06:12;18.92;;;12.38;;
71869;SDS011;59739;47.696;11.746;2022-12-10T10:08:48;22.25;;;11.68;;
71869;SDS011;59739;47.696;11.746;2022-12-10T10:11:20;20.58;;;10.80;;
71869;SDS011;59739;47.696;11.746;2022-12-10T10:13:55;21.17;;;13.05;;
71869;SDS011;59739;47.696;11.746;2022-12-10T10:16:27;20.27;;;11.98;;
71869;SDS011;59739;47.696;11.746;2022-12-10T10:21:34;19.08;;;10.50;;
71869;SDS011;59739;47.696;11.746;2022-12-10T10:24:06;20.60;;;11.48;;
71869;SDS011;59739;47.696;11.746;2022-12-10T10:29:05;16.90;;;10.35;;
71869;SDS011;59739;47.696;11.746;2022-12-10T10:31:38;16.27;;;10.13;;
71869;SDS011;59739;47.696;11.746;2022-12-10T10:34:12;16.45;;;9.82;;
71869;SDS011;59739;47.696;11.746;2022-12-10T10:36:56;17.10;;;9.98;;
71869;SDS011;59739;47.696;11.746;2022-12-10T10:39:32;16.17;;;9.52;;
71869;SDS011;59739;47.696;11.746;2022-12-10T10:42:07;14.13;;;8.48;;
71869;SDS011;59739;47.696;11.746;2022-12-10T10:44:36;13.93;;;8.85;;
71869;SDS011;59739;47.696;11.746;2022-12-10T10:47:23;14.25;;;9.10;;
71869;SDS011;59739;47.696;11.746;2022-12-10T10:49:52;14.57;;;9.55;;
71869;SDS011;59739;47.696;11.746;2022-12-10T10:52:18;14.95;;;9.20;;
71869;SDS011;59739;47.696;11.746;2022-12-10T10:54:44;15.90;;;10.32;;
71869;SDS011;59739;47.696;11.746;2022-12-10T10:57:24;13.02;;;7.63;;
71869;SDS011;59739;47.696;11.746;2022-12-10T10:59:55;12.15;;;8.18;;
71869;SDS011;59739;47.696;11.746;2022-12-10T11:02:29;14.05;;;8.73;;
71869;SDS011;59739;47.696;11.746;2022-12-10T11:05:04;10.95;;;7.85;;
71869;SDS011;59739;47.696;11.746;2022-12-10T11:07:47;11.82;;;7.53;;
71869;SDS011;59739;47.696;11.746;2022-12-10T11:10:18;10.88;;;7.88;;
71869;SDS011;59739;47.696;11.746;2022-12-10T11:12:53;11.30;;;8.05;;
71869;SDS011;59739;47.696;11.746;2022-12-10T11:15:44;12.23;;;7.82;;
71869;SDS011;59739;47.696;11.746;2022-12-10T11:18:22;9.82;;;7.55;;
71869;SDS011;59739;47.696;11.746;2022-12-10T11:20:58;13.73;;;8.63;;
71869;SDS011;59739;47.696;11.746;2022-12-10T11:23:30;10.00;;;6.75;;
71869;SDS011;59739;47.696;11.746;2022-12-10T11:51:44;11.00;;;7.65;;
71869;SDS011;59739;47.696;11.746;2022-12-10T11:57:49;11.02;;;7.05;;
71869;SDS011;59739;47.696;11.746;2022-12-10T12:00:55;11.20;;;7.28;;
71869;SDS011;59739;47.696;11.746;2022-12-10T12:12:29;10.50;;;6.32;;
71869;SDS011;59739;47.696;11.746;2022-12-10T12:15:25;9.98;;;6.70;;
71869;SDS011;59739;47.696;11.746;2022-12-10T12:20:49;9.10;;;5.88;;
71869;SDS011;59739;47.696;11.746;2022-12-10T12:26:09;9.05;;;6.35;;
71869;SDS011;59739;47.696;11.746;2022-12-10T12:29:06;11.18;;;6.93;;
71869;SDS011;59739;47.696;11.746;2022-12-10T12:38:06;9.38;;;6.32;;
71869;SDS011;59739;47.696;11.746;2022-12-10T12:40:52;8.30;;;5.70;;
71869;SDS011;59739;47.696;11.746;2022-12-10T12:46:00;9.32;;;6.43;;
71869;SDS011;59739;47.696;11.746;2022-12-10T12:48:32;7.00;;;5.00;;
71869;SDS011;59739;47.696;11.746;2022-12-10T12:51:14;7.38;;;5.60;;
71869;SDS011;59739;47.696;11.746;2022-12-10T12:54:04;8.80;;;6.00;;
71869;SDS011;59739;47.696;11.746;2022-12-10T12:56:45;7.95;;;5.28;;
71869;SDS011;59739;47.696;11.746;2022-12-10T12:59:56;8.32;;;5.50;;
71869;SDS011;59739;47.696;11.746;2022-12-10T13:02:44;9.60;;;5.72;;
71869;SDS011;59739;47.696;11.746;2022-12-10T13:05:16;11.00;;;6.20;;
71869;SDS011;59739;47.696;11.746;2022-12-10T13:11:30;12.07;;;6.38;;
71869;SDS011;59739;47.696;11.746;2022-12-10T13:13:39;9.20;;;5.90;;
71869;SDS011;59739;47.696;11.746;2022-12-10T13:21:59;8.75;;;5.28;;
71869;SDS011;59739;47.696;11.746;2022-12-10T13:34:44;10.77;;;6.63;;
71869;SDS011;59739;47.696;11.746;2022-12-10T13:37:18;14.32;;;8.07;;
71869;SDS011;59739;47.696;11.746;2022-12-10T13:42:50;17.08;;;9.15;;
71869;SDS011;59739;47.696;11.746;2022-12-10T13:49:22;15.88;;;9.48;;
71869;SDS011;59739;47.696;11.746;2022-12-10T13:52:01;17.35;;;11.20;;
71869;SDS011;59739;47.696;11.746;2022-12-10T13:57:48;19.10;;;10.18;;
71869;SDS011;59739;47.696;11.746;2022-12-10T14:00:28;17.63;;;10.45;;
71869;SDS011;59739;47.696;11.746;2022-12-10T14:06:16;18.25;;;9.30;;
71869;SDS011;59739;47.696;11.746;2022-12-10T14:11:22;18.70;;;10.05;;
71869;SDS011;59739;47.696;11.746;2022-12-10T14:13:57;15.25;;;8.73;;
71869;SDS011;59739;47.696;11.746;2022-12-10T14:16:26;18.88;;;10.40;;
71869;SDS011;59739;47.696;11.746;2022-12-10T14:18:57;18.67;;;10.05;;
71869;SDS011;59739;47.696;11.746;2022-12-10T14:21:35;18.10;;;10.85;;
71869;SDS011;59739;47.696;11.746;2022-12-10T14:24:04;21.33;;;10.60;;
71869;SDS011;59739;47.696;11.746;2022-12-10T14:26:35;15.00;;;8.98;;
71869;SDS011;59739;47.696;11.746;2022-12-10T14:29:12;18.88;;;10.73;;
71869;SDS011;59739;47.696;11.746;2022-12-10T14:31:47;17.83;;;9.52;;
71869;SDS011;59739;47.696;11.746;2022-12-10T14:34:15;18.30;;;10.35;;
71869;SDS011;59739;47.696;11.746;2022-12-10T14:36:49;19.70;;;10.70;;
71869;SDS011;59739;47.696;11.746;2022-12-10T14:39:19;18.13;;;10.27;;
71869;SDS011;59739;47.696;11.746;2022-12-10T14:41:56;16.70;;;8.52;;
71869;SDS011;59739;47.696;11.746;2022-12-10T14:44:25;20.48;;;10.38;;
71869;SDS011;59739;47.696;11.746;2022-12-10T14:46:52;18.70;;;12.00;;
71869;SDS011;59739;47.696;11.746;2022-12-10T14:49:38;16.85;;;10.25;;
71869;SDS011;59739;47.696;11.746;2022-12-10T14:52:11;18.10;;;10.35;;
71869;SDS011;59739;47.696;11.746;2022-12-10T14:54:43;17.45;;;8.77;;
71869;SDS011;59739;47.696;11.746;2022-12-10T14:57:22;17.02;;;9.60;;
71869;SDS011;59739;47.696;11.746;2022-12-10T14:59:57;17.90;;;9.18;;
71869;SDS011;59739;47.696;11.746;2022-12-10T15:02:30;18.40;;;10.20;;
71869;SDS011;59739;47.696;11.746;2022-12-10T15:05:01;18.95;;;11.18;;
71869;SDS011;59739;47.696;11.746;2022-12-10T15:07:30;18.95;;;10.88;;
71869;SDS011;59739;47.696;11.746;2022-12-10T15:10:02;12.25;;;7.10;;
71869;SDS011;59739;47.696;11.746;2022-12-10T15:15:15;16.85;;;9.27;;
71869;SDS011;59739;47.696;11.746;2022-12-10T15:17:54;18.95;;;10.57;;
71869;SDS011;59739;47.696;11.746;2022-12-10T15:21:03;14.75;;;8.98;;
71869;SDS011;59739;47.696;11.746;2022-12-10T15:23:36;17.65;;;9.20;;
71869;SDS011;59739;47.696;11.746;2022-12-10T15:29:15;18.23;;;10.07;;
71869;SDS011;59739;47.696;11.746;2022-12-10T15:32:00;20.13;;;11.13;;
71869;SDS011;59739;47.696;11.746;2022-12-10T15:34:50;20.77;;;11.70;;
71869;SDS011;59739;47.696;11.746;2022-12-10T15:37:27;18.13;;;9.40;;
71869;SDS011;59739;47.696;11.746;2022-12-10T15:40:00;16.73;;;10.07;;
71869;SDS011;59739;47.696;11.746;2022-12-10T15:42:43;20.80;;;10.73;;
71869;SDS011;59739;47.696;11.746;2022-12-10T15:48:05;18.77;;;10.37;;
71869;SDS011;59739;47.696;11.746;2022-12-10T15:50:35;19.23;;;10.75;;
71869;SDS011;59739;47.696;11.746;2022-12-10T15:53:02;17.88;;;10.07;;
71869;SDS011;59739;47.696;11.746;2022-12-10T15:55:28;18.75;;;10.93;;
71869;SDS011;59739;47.696;11.746;2022-12-10T15:57:54;16.92;;;9.35;;
71869;SDS011;59739;47.696;11.746;2022-12-10T16:00:24;19.27;;;10.13;;
71869;SDS011;59739;47.696;11.746;2022-12-10T16:02:58;17.00;;;10.43;;
71869;SDS011;59739;47.696;11.746;2022-12-10T16:05:32;13.07;;;7.72;;
71869;SDS011;59739;47.696;11.746;2022-12-10T16:08:15;12.80;;;8.35;;
71869;SDS011;59739;47.696;11.746;2022-12-10T16:10:48;14.93;;;8.93;;
71869;SDS011;59739;47.696;11.746;2022-12-10T16:13:26;13.38;;;8.18;;
71869;SDS011;59739;47.696;11.746;2022-12-10T16:16:00;14.68;;;8.38;;
71869;SDS011;59739;47.696;11.746;2022-12-10T16:18:30;11.43;;;6.93;;
71869;SDS011;59739;47.696;11.746;2022-12-10T16:20:56;15.25;;;9.20;;
71869;SDS011;59739;47.696;11.746;2022-12-10T16:23:22;13.25;;;8.30;;
71869;SDS011;59739;47.696;11.746;2022-12-10T16:25:48;12.52;;;7.20;;
71869;SDS011;59739;47.696;11.746;2022-12-10T16:28:19;11.30;;;7.22;;
71869;SDS011;59739;47.696;11.746;2022-12-10T16:30:48;11.82;;;7.47;;
71869;SDS011;59739;47.696;11.746;2022-12-10T16:33:20;12.27;;;7.57;;
71869;SDS011;59739;47.696;11.746;2022-12-10T16:35:48;10.32;;;6.35;;
71869;SDS011;59739;47.696;11.746;2022-12-10T16:38:17;11.40;;;7.57;;
71869;SDS011;59739;47.696;11.746;2022-12-10T16:40:44;10.25;;;7.03;;
71869;SDS011;59739;47.696;11.746;2022-12-10T16:43:18;11.32;;;7.50;;
71869;SDS011;59739;47.696;11.746;2022-12-10T16:45:57;12.05;;;7.63;;
71869;SDS011;59739;47.696;11.746;2022-12-10T16:48:23;12.10;;;8.05;;
71869;SDS011;59739;47.696;11.746;2022-12-10T16:50:50;12.50;;;7.50;;